Time;durP1;ratioP1;P1;durP2;ratioP2;P2;SDS_P1;SDS_P2;PMS_P1;PMS_P2;Temp;Humidity;BMP_temperature;BMP_pressure;BME280_temperature;BME280_humidity;BME280_pressure;Samples;Min_cycle;Max_cycle;Signal;HPM_P1;HPM_P2
2021/05/30 00:00:09;;;;;;;2.80;2.40;;;;;;;;;;5115483;28;20020;-76
2021/05/30 00:02:35;;;;;;;3.63;2.47;;;;;;;;;;5115373;28;20145;-76
2021/05/30 00:05:02;;;;;;;3.22;2.20;;;;;;;;;;5115311;28;20024;-81
2021/05/30 00:07:28;;;;;;;2.38;2.10;;;;;;;;;;5115153;28;20083;-78
2021/05/30 00:09:54;;;;;;;3.65;2.30;;;;;;;;;;5115257;28;20030;-79
2021/05/30 00:12:21;;;;;;;3.40;2.15;;;;;;;;;;5115084;28;20032;-79
2021/05/30 00:14:47;;;;;;;4.05;2.10;;;;;;;;;;5115168;28;20030;-82
2021/05/30 00:17:14;;;;;;;2.65;2.10;;;;;;;;;;5114956;28;20094;-78
2021/05/30 00:19:40;;;;;;;2.53;1.98;;;;;;;;;;5115116;28;20031;-75
2021/05/30 00:22:06;;;;;;;2.70;2.30;;;;;;;;;;5115298;28;20024;-80
2021/05/30 00:24:33;;;;;;;2.45;2.08;;;;;;;;;;5114596;28;20059;-77
2021/05/30 00:26:59;;;;;;;3.58;2.22;;;;;;;;;;5115058;28;20036;-76
2021/05/30 00:29:25;;;;;;;2.08;1.85;;;;;;;;;;5114614;28;20023;-78
2021/05/30 00:31:51;;;;;;;2.53;2.33;;;;;;;;;;5114782;28;20028;-77
2021/05/30 00:34:17;;;;;;;2.85;1.83;;;;;;;;;;5114684;28;20108;-77
2021/05/30 00:36:43;;;;;;;4.03;2.30;;;;;;;;;;5114486;28;20500;-76
2021/05/30 00:39:10;;;;;;;3.20;2.15;;;;;;;;;;5114564;28;20031;-79
2021/05/30 00:41:36;;;;;;;2.75;1.98;;;;;;;;;;5114313;28;20080;-77
2021/05/30 00:44:02;;;;;;;4.85;1.90;;;;;;;;;;5114444;28;20031;-80
2021/05/30 00:46:30;;;;;;;2.80;2.20;;;;;;;;;;5114324;28;20108;-76
2021/05/30 00:48:56;;;;;;;3.15;2.33;;;;;;;;;;5114509;28;20020;-80
2021/05/30 00:51:22;;;;;;;3.35;2.17;;;;;;;;;;5114346;28;20024;-77
2021/05/30 00:53:48;;;;;;;3.42;2.50;;;;;;;;;;5114347;28;20093;-77
2021/05/30 00:56:16;;;;;;;3.28;2.28;;;;;;;;;;5114320;28;20073;-77
2021/05/30 00:58:42;;;;;;;2.67;1.95;;;;;;;;;;5114052;28;20031;-76
2021/05/30 01:01:09;;;;;;;3.30;2.22;;;;;;;;;;5096009;28;20102;-77
2021/05/30 01:03:38;;;;;;;3.03;2.42;;;;;;;;;;5113858;28;20046;-77
2021/05/30 01:06:05;;;;;;;3.72;2.45;;;;;;;;;;5114318;28;20059;-77
2021/05/30 01:08:31;;;;;;;2.50;1.92;;;;;;;;;;5113950;28;20453;-80
2021/05/30 01:10:59;;;;;;;2.22;2.03;;;;;;;;;;5114028;28;20098;-77
2021/05/30 01:13:26;;;;;;;3.22;2.17;;;;;;;;;;5095966;28;20110;-76
2021/05/30 01:15:52;;;;;;;2.20;2.00;;;;;;;;;;5114102;28;20447;-77
2021/05/30 01:18:23;;;;;;;3.75;2.20;;;;;;;;;;5113706;28;20031;-78
2021/05/30 01:20:50;;;;;;;3.03;2.17;;;;;;;;;;5114182;28;20039;-79
2021/05/30 01:23:18;;;;;;;4.55;2.60;;;;;;;;;;5113665;28;20035;-76
2021/05/30 01:25:44;;;;;;;2.75;2.30;;;;;;;;;;5113735;28;20046;-76
2021/05/30 01:28:10;;;;;;;2.83;2.53;;;;;;;;;;5114276;28;20020;-76
2021/05/30 01:30:37;;;;;;;3.40;2.22;;;;;;;;;;5113636;28;20031;-76
2021/05/30 01:33:03;;;;;;;2.47;2.28;;;;;;;;;;5113676;28;20023;-76
2021/05/30 01:35:30;;;;;;;3.08;2.38;;;;;;;;;;5113422;28;20065;-76
2021/05/30 01:37:56;;;;;;;3.05;2.53;;;;;;;;;;5113863;28;20027;-78
2021/05/30 01:40:22;;;;;;;3.55;1.90;;;;;;;;;;5113517;28;20026;-77
2021/05/30 01:42:49;;;;;;;3.47;2.17;;;;;;;;;;5113234;28;20031;-79
2021/05/30 01:45:16;;;;;;;2.38;1.92;;;;;;;;;;5113467;28;20497;-78
2021/05/30 01:47:43;;;;;;;3.08;2.05;;;;;;;;;;5113681;28;20019;-78
2021/05/30 01:50:13;;;;;;;3.60;2.00;;;;;;;;;;5113623;28;20023;-76
2021/05/30 01:52:39;;;;;;;3.55;2.35;;;;;;;;;;5113200;28;20062;-77
2021/05/30 01:55:06;;;;;;;3.65;2.00;;;;;;;;;;5113347;28;20059;-79
2021/05/30 01:57:39;;;;;;;3.22;2.53;;;;;;;;;;5113510;28;20081;-78
2021/05/30 02:00:05;;;;;;;2.25;1.95;;;;;;;;;;5113424;28;20027;-79
2021/05/30 02:02:31;;;;;;;3.72;2.10;;;;;;;;;;5113322;28;20035;-79
2021/05/30 02:04:57;;;;;;;3.35;1.98;;;;;;;;;;5113320;28;20038;-79
2021/05/30 02:07:24;;;;;;;2.22;1.90;;;;;;;;;;5113339;28;20028;-77
2021/05/30 02:09:50;;;;;;;2.35;2.00;;;;;;;;;;5113181;28;20053;-78
2021/05/30 02:12:16;;;;;;;2.85;2.05;;;;;;;;;;5094936;28;20020;-80
2021/05/30 02:14:42;;;;;;;3.75;2.15;;;;;;;;;;5113301;28;20085;-78
2021/05/30 02:17:08;;;;;;;2.63;2.00;;;;;;;;;;5113355;28;20024;-79
2021/05/30 02:19:34;;;;;;;2.65;1.85;;;;;;;;;;5113367;28;20055;-77
2021/05/30 02:22:00;;;;;;;1.88;1.70;;;;;;;;;;5113209;28;20039;-77
2021/05/30 02:24:27;;;;;;;2.92;1.88;;;;;;;;;;5112855;28;20120;-77
2021/05/30 02:26:53;;;;;;;2.38;2.05;;;;;;;;;;5113305;28;20051;-77
2021/05/30 02:29:39;;;;;;;2.78;2.20;;;;;;;;;;5113017;28;20088;-76
2021/05/30 02:32:06;;;;;;;3.53;1.95;;;;;;;;;;5112911;28;20136;-77
2021/05/30 02:34:33;;;;;;;2.65;2.00;;;;;;;;;;5112828;28;20050;-77
2021/05/30 02:37:00;;;;;;;2.45;2.25;;;;;;;;;;5113032;28;20394;-77
2021/05/30 02:39:26;;;;;;;3.67;1.90;;;;;;;;;;5112862;28;20031;-76
2021/05/30 02:41:52;;;;;;;2.40;1.52;;;;;;;;;;5112972;28;20055;-78
2021/05/30 02:44:18;;;;;;;3.03;2.08;;;;;;;;;;5113009;28;20370;-77
2021/05/30 02:46:44;;;;;;;4.50;2.20;;;;;;;;;;5113073;28;20032;-77
2021/05/30 02:49:11;;;;;;;2.38;2.08;;;;;;;;;;5112860;28;20020;-78
2021/05/30 02:51:37;;;;;;;2.60;2.40;;;;;;;;;;5112748;28;20031;-75
2021/05/30 02:54:03;;;;;;;2.60;2.22;;;;;;;;;;5113013;28;20031;-79
2021/05/30 02:56:29;;;;;;;2.78;2.22;;;;;;;;;;5115812;28;20027;-75
2021/05/30 02:58:55;;;;;;;2.80;2.50;;;;;;;;;;5117107;28;20024;-77
2021/05/30 03:01:21;;;;;;;4.30;2.40;;;;;;;;;;5116386;28;20031;-78
2021/05/30 03:03:49;;;;;;;11.32;9.60;;;;;;;;;;5116306;28;20424;-76
2021/05/30 03:06:15;;;;;;;7.15;5.63;;;;;;;;;;5116353;28;20462;-78
2021/05/30 03:08:41;;;;;;;8.73;5.43;;;;;;;;;;5116519;28;20016;-75
2021/05/30 03:11:08;;;;;;;2.83;2.53;;;;;;;;;;5116179;28;20363;-78
2021/05/30 03:13:35;;;;;;;3.22;2.60;;;;;;;;;;5116781;28;20028;-77
2021/05/30 03:16:01;;;;;;;2.70;2.22;;;;;;;;;;5116403;28;20030;-79
2021/05/30 03:18:27;;;;;;;8.63;6.70;;;;;;;;;;5116083;28;20019;-76
2021/05/30 03:20:54;;;;;;;4.75;3.92;;;;;;;;;;5116353;28;20526;-77
2021/05/30 03:23:20;;;;;;;3.15;2.75;;;;;;;;;;5080842;28;20023;-76
2021/05/30 03:25:46;;;;;;;2.70;2.42;;;;;;;;;;5116382;28;20027;-80
2021/05/30 03:28:12;;;;;;;2.50;2.30;;;;;;;;;;5115775;28;20386;-78
2021/05/30 03:30:38;;;;;;;2.45;2.17;;;;;;;;;;5116074;28;20020;-79
2021/05/30 03:33:05;;;;;;;4.07;2.58;;;;;;;;;;5115582;28;20027;-76
2021/05/30 03:35:31;;;;;;;3.83;2.60;;;;;;;;;;5115862;28;20521;-76
2021/05/30 03:37:58;;;;;;;3.08;2.30;;;;;;;;;;5115853;28;20390;-78
2021/05/30 03:40:37;;;;;;;3.30;2.17;;;;;;;;;;5115632;28;20031;-77
2021/05/30 03:43:03;;;;;;;3.22;2.35;;;;;;;;;;5115565;28;20028;-78
2021/05/30 03:45:29;;;;;;;4.95;2.67;;;;;;;;;;5116191;28;20136;-77
2021/05/30 03:47:56;;;;;;;3.88;2.30;;;;;;;;;;5115849;28;20024;-78
2021/05/30 03:50:22;;;;;;;2.75;1.98;;;;;;;;;;5115653;28;20420;-79
2021/05/30 03:52:48;;;;;;;2.88;1.95;;;;;;;;;;5115254;28;20023;-75
2021/05/30 03:55:15;;;;;;;4.45;2.25;;;;;;;;;;5096918;28;20039;-78
2021/05/30 03:57:41;;;;;;;2.05;1.83;;;;;;;;;;5115597;28;20036;-77
2021/05/30 04:00:09;;;;;;;3.08;2.58;;;;;;;;;;5115422;28;20020;-80
2021/05/30 04:02:35;;;;;;;3.33;2.10;;;;;;;;;;5115331;28;20463;-77
2021/05/30 04:05:01;;;;;;;4.28;3.42;;;;;;;;;;5115256;28;20062;-77
2021/05/30 04:07:27;;;;;;;8.30;4.85;;;;;;;;;;5114951;28;20039;-78
2021/05/30 04:09:54;;;;;;;19.70;14.68;;;;;;;;;;5115257;28;20027;-76
2021/05/30 04:12:20;;;;;;;4.10;2.33;;;;;;;;;;5114975;28;20043;-78
2021/05/30 04:14:46;;;;;;;2.90;2.22;;;;;;;;;;5115014;28;20034;-77
2021/05/30 04:17:12;;;;;;;3.85;2.17;;;;;;;;;;5114960;28;20038;-76
2021/05/30 04:19:38;;;;;;;3.63;2.15;;;;;;;;;;5115195;28;20037;-79
2021/05/30 04:22:04;;;;;;;3.30;2.55;;;;;;;;;;5114764;28;20039;-78
2021/05/30 04:24:30;;;;;;;4.63;2.47;;;;;;;;;;5114954;28;20031;-75
2021/05/30 04:26:56;;;;;;;4.32;2.25;;;;;;;;;;5114862;28;20055;-77
2021/05/30 04:29:23;;;;;;;4.05;2.58;;;;;;;;;;5115004;28;20387;-76
2021/05/30 04:31:49;;;;;;;2.63;2.03;;;;;;;;;;5114835;28;20023;-77
2021/05/30 04:34:15;;;;;;;2.75;1.88;;;;;;;;;;5114441;28;20535;-76
2021/05/30 04:36:41;;;;;;;2.78;2.13;;;;;;;;;;5114734;28;20102;-78
2021/05/30 04:39:07;;;;;;;2.97;2.15;;;;;;;;;;5114465;28;20027;-77
2021/05/30 04:41:33;;;;;;;3.40;2.55;;;;;;;;;;5114735;28;20030;-77
2021/05/30 04:43:59;;;;;;;4.93;2.67;;;;;;;;;;5114248;28;20479;-76
2021/05/30 04:46:25;;;;;;;13.45;11.43;;;;;;;;;;5114592;28;20058;-80
2021/05/30 04:48:51;;;;;;;4.53;4.05;;;;;;;;;;5114418;28;20020;-78
2021/05/30 04:51:17;;;;;;;12.20;9.85;;;;;;;;;;5114031;28;20011;-77
2021/05/30 04:53:45;;;;;;;11.40;7.95;;;;;;;;;;5114820;28;20031;-76
2021/05/30 04:56:12;;;;;;;3.53;2.55;;;;;;;;;;5114068;28;20027;-80
2021/05/30 04:58:38;;;;;;;2.50;2.10;;;;;;;;;;5095899;28;20032;-76
2021/05/30 05:01:06;;;;;;;4.07;2.40;;;;;;;;;;5114018;28;20023;-79
2021/05/30 05:03:35;;;;;;;3.38;2.47;;;;;;;;;;5114336;28;20115;-78
2021/05/30 05:06:01;;;;;;;3.15;2.80;;;;;;;;;;5114126;28;20020;-78
2021/05/30 05:08:27;;;;;;;3.65;1.88;;;;;;;;;;5114433;28;20023;-77
2021/05/30 05:10:53;;;;;;;2.33;2.13;;;;;;;;;;5113801;28;20031;-77
2021/05/30 05:13:20;;;;;;;3.03;2.33;;;;;;;;;;5113966;28;20027;-78
2021/05/30 05:16:04;;;;;;;3.05;1.92;;;;;;;;;;5114001;28;20020;-76
2021/05/30 05:18:31;;;;;;;2.95;1.90;;;;;;;;;;5113208;28;20027;-78
2021/05/30 05:20:58;;;;;;;3.47;2.20;;;;;;;;;;5113702;28;20023;-77
2021/05/30 05:23:25;;;;;;;2.13;1.92;;;;;;;;;;5113791;28;20123;-78
2021/05/30 05:25:55;;;;;;;3.03;2.35;;;;;;;;;;5113638;28;20020;-79
2021/05/30 05:28:22;;;;;;;3.67;2.15;;;;;;;;;;5113730;28;20020;-80
2021/05/30 05:30:52;;;;;;;3.80;2.30;;;;;;;;;;5113882;28;20027;-79
2021/05/30 05:33:18;;;;;;;2.50;2.10;;;;;;;;;;5114394;28;20484;-77
2021/05/30 05:35:45;;;;;;;6.38;3.65;;;;;;;;;;5113426;28;20082;-77
2021/05/30 05:38:11;;;;;;;2.90;2.50;;;;;;;;;;5113554;28;20031;-80
2021/05/30 05:40:38;;;;;;;2.67;2.47;;;;;;;;;;5113782;28;20039;-77
2021/05/30 05:43:05;;;;;;;4.28;2.65;;;;;;;;;;5113410;28;20080;-78
2021/05/30 05:45:31;;;;;;;3.67;2.45;;;;;;;;;;5113491;28;20015;-77
2021/05/30 05:47:57;;;;;;;3.22;1.70;;;;;;;;;;5113427;28;20039;-81
2021/05/30 05:50:24;;;;;;;2.97;2.00;;;;;;;;;;5113475;28;20036;-78
2021/05/30 05:52:50;;;;;;;3.30;2.47;;;;;;;;;;5113362;28;20027;-79
2021/05/30 05:55:18;;;;;;;2.38;2.15;;;;;;;;;;5113437;28;20124;-79
2021/05/30 05:57:46;;;;;;;3.50;2.47;;;;;;;;;;5113551;28;20106;-75
2021/05/30 06:00:14;;;;;;;5.57;2.10;;;;;;;;;;5113277;28;20028;-79
2021/05/30 06:02:42;;;;;;;2.47;2.28;;;;;;;;;;5113521;28;20370;-77
2021/05/30 06:05:08;;;;;;;4.40;1.95;;;;;;;;;;5113186;28;20044;-78
2021/05/30 06:07:36;;;;;;;5.05;2.83;;;;;;;;;;5113480;28;20394;-76
2021/05/30 06:10:02;;;;;;;4.38;2.33;;;;;;;;;;5113426;28;20027;-77
2021/05/30 06:12:28;;;;;;;2.85;2.22;;;;;;;;;;5113551;28;20034;-78
2021/05/30 06:14:54;;;;;;;4.47;2.50;;;;;;;;;;5113184;28;20031;-76
2021/05/30 06:17:22;;;;;;;2.85;2.05;;;;;;;;;;5113238;28;20024;-77
2021/05/30 06:19:48;;;;;;;2.83;2.30;;;;;;;;;;5112932;28;20036;-76
2021/05/30 06:22:16;;;;;;;3.33;2.25;;;;;;;;;;5113185;28;20115;-76
2021/05/30 06:24:43;;;;;;;4.47;2.65;;;;;;;;;;5113074;28;20036;-77
2021/05/30 06:27:09;;;;;;;2.63;2.17;;;;;;;;;;5113343;28;20042;-77
2021/05/30 06:29:35;;;;;;;2.85;2.45;;;;;;;;;;5115028;28;20031;-79
2021/05/30 06:32:01;;;;;;;4.13;2.30;;;;;;;;;;5117164;28;20423;-75
2021/05/30 06:34:27;;;;;;;2.97;2.25;;;;;;;;;;5117128;28;20036;-76
2021/05/30 06:36:54;;;;;;;4.22;2.50;;;;;;;;;;5116989;28;20023;-76
2021/05/30 06:39:21;;;;;;;3.63;2.80;;;;;;;;;;5117155;28;20028;-77
2021/05/30 06:41:47;;;;;;;3.50;2.40;;;;;;;;;;5117239;28;20031;-76
2021/05/30 06:44:13;;;;;;;5.07;2.83;;;;;;;;;;5117241;28;20111;-78
2021/05/30 06:46:39;;;;;;;3.30;3.00;;;;;;;;;;5116841;28;20035;-78
2021/05/30 06:49:05;;;;;;;3.63;2.20;;;;;;;;;;5116940;28;20030;-77
2021/05/30 06:51:32;;;;;;;3.95;2.40;;;;;;;;;;5116944;28;20453;-78
2021/05/30 06:53:59;;;;;;;2.97;2.15;;;;;;;;;;5116600;28;20031;-79
2021/05/30 06:56:26;;;;;;;2.50;2.08;;;;;;;;;;5116962;28;20081;-79
2021/05/30 06:58:52;;;;;;;2.72;2.53;;;;;;;;;;5116610;28;20019;-79
2021/05/30 07:01:19;;;;;;;3.50;2.30;;;;;;;;;;5116577;28;20024;-81
2021/05/30 07:03:46;;;;;;;4.63;2.75;;;;;;;;;;5116519;28;20380;-77
2021/05/30 07:06:13;;;;;;;7.40;2.20;;;;;;;;;;5116587;28;20061;-79
2021/05/30 07:08:39;;;;;;;3.05;2.25;;;;;;;;;;5116720;28;20023;-77
2021/05/30 07:11:05;;;;;;;3.88;2.83;;;;;;;;;;5116468;28;20023;-76
2021/05/30 07:13:31;;;;;;;5.85;3.78;;;;;;;;;;5116549;28;20023;-78
2021/05/30 07:15:57;;;;;;;2.70;2.10;;;;;;;;;;5116346;28;20055;-78
2021/05/30 07:18:24;;;;;;;2.10;1.90;;;;;;;;;;5116435;28;20028;-78
2021/05/30 07:20:52;;;;;;;3.72;2.38;;;;;;;;;;5116122;28;20031;-76
2021/05/30 07:23:18;;;;;;;2.88;1.90;;;;;;;;;;5116119;28;20060;-76
2021/05/30 07:25:45;;;;;;;2.50;1.75;;;;;;;;;;5116063;28;20028;-77
2021/05/30 07:28:11;;;;;;;2.53;1.58;;;;;;;;;;5116481;28;20096;-76
2021/05/30 07:30:37;;;;;;;2.80;2.05;;;;;;;;;;5116246;28;20020;-77
2021/05/30 07:33:04;;;;;;;2.67;1.73;;;;;;;;;;5115845;28;20031;-79
2021/05/30 07:35:30;;;;;;;2.63;1.58;;;;;;;;;;5116016;28;20142;-76
2021/05/30 07:37:56;;;;;;;2.38;1.40;;;;;;;;;;5115985;28;20022;-78
2021/05/30 07:40:23;;;;;;;5.30;2.70;;;;;;;;;;5115376;28;20059;-77
2021/05/30 07:42:49;;;;;;;4.50;2.03;;;;;;;;;;5115417;28;20032;-77
2021/05/30 07:45:16;;;;;;;3.67;2.10;;;;;;;;;;5115656;28;20082;-80
2021/05/30 07:47:43;;;;;;;3.17;2.10;;;;;;;;;;5116182;28;20092;-77
2021/05/30 07:50:09;;;;;;;3.28;2.20;;;;;;;;;;5115647;28;20070;-77
2021/05/30 07:52:36;;;;;;;3.28;2.08;;;;;;;;;;5115363;28;20031;-77
2021/05/30 07:55:03;;;;;;;2.15;1.88;;;;;;;;;;5115688;28;20035;-77
2021/05/30 07:57:30;;;;;;;3.45;1.77;;;;;;;;;;5115557;28;20079;-84
2021/05/30 07:59:57;;;;;;;2.10;1.42;;;;;;;;;;5115416;28;20027;-80
2021/05/30 08:02:23;;;;;;;3.47;2.13;;;;;;;;;;5116115;28;20454;-77
2021/05/30 08:04:49;;;;;;;1.95;1.52;;;;;;;;;;5115423;28;20402;-79
2021/05/30 08:07:15;;;;;;;1.50;1.40;;;;;;;;;;5115616;28;20031;-84
2021/05/30 08:09:41;;;;;;;1.88;1.63;;;;;;;;;;5115472;28;20030;-77
2021/05/30 08:12:08;;;;;;;1.88;1.50;;;;;;;;;;5115302;28;20112;-77
2021/05/30 08:14:36;;;;;;;3.58;1.45;;;;;;;;;;5115106;28;20027;-80
2021/05/30 08:17:02;;;;;;;2.20;1.58;;;;;;;;;;5115549;28;20023;-78
2021/05/30 08:19:28;;;;;;;4.00;1.85;;;;;;;;;;5115257;28;20031;-80
2021/05/30 08:21:54;;;;;;;2.55;1.52;;;;;;;;;;5115247;28;20936;-79
2021/05/30 08:24:20;;;;;;;2.17;1.48;;;;;;;;;;5115259;28;20094;-82
2021/05/30 08:26:46;;;;;;;1.80;1.27;;;;;;;;;;5115515;28;20024;-78
2021/05/30 08:29:12;;;;;;;2.85;1.40;;;;;;;;;;5115327;28;20486;-76
2021/05/30 08:31:38;;;;;;;2.95;1.25;;;;;;;;;;5115105;28;20026;-84
2021/05/30 08:34:05;;;;;;;2.53;1.33;;;;;;;;;;5114768;28;20576;-81
2021/05/30 08:36:31;;;;;;;2.17;1.27;;;;;;;;;;5114633;28;20106;-77
2021/05/30 08:38:57;;;;;;;3.08;1.25;;;;;;;;;;5114569;28;20466;-79
2021/05/30 08:41:23;;;;;;;2.58;1.30;;;;;;;;;;5114622;28;20023;-76
2021/05/30 08:43:49;;;;;;;2.83;1.63;;;;;;;;;;5114756;28;20157;-77
2021/05/30 08:46:15;;;;;;;3.65;1.38;;;;;;;;;;5114830;28;20028;-75
2021/05/30 08:48:41;;;;;;;1.75;1.30;;;;;;;;;;5114447;28;20386;-77
2021/05/30 08:51:12;;;;;;;2.92;1.42;;;;;;;;;;5114897;28;20023;-79
2021/05/30 08:53:39;;;;;;;2.10;1.60;;;;;;;;;;5113312;28;20035;-77
2021/05/30 08:56:06;;;;;;;3.25;1.30;;;;;;;;;;5114317;28;20032;-76
2021/05/30 08:58:51;;;;;;;1.85;1.27;;;;;;;;;;5114382;28;20096;-76
2021/05/30 09:01:26;;;;;;;1.60;1.30;;;;;;;;;;5114112;28;20023;-77
2021/05/30 09:03:52;;;;;;;3.22;1.27;;;;;;;;;;5114111;28;20032;-77
2021/05/30 09:06:19;;;;;;;2.50;1.20;;;;;;;;;;5114240;28;20020;-77
2021/05/30 09:08:45;;;;;;;1.52;1.30;;;;;;;;;;5114055;28;20035;-78
2021/05/30 09:11:11;;;;;;;1.98;1.27;;;;;;;;;;5114016;28;20059;-76
2021/05/30 09:13:59;;;;;;;2.38;1.25;;;;;;;;;;5114021;28;20106;-78
2021/05/30 09:16:45;;;;;;;1.40;1.15;;;;;;;;;;5114088;28;20031;-76
2021/05/30 09:19:28;;;;;;;2.63;1.63;;;;;;;;;;5095882;28;20027;-81
2021/05/30 09:22:13;;;;;;;2.22;1.33;;;;;;;;;;5113840;28;20478;-80
2021/05/30 09:24:39;;;;;;;2.53;1.40;;;;;;;;;;5095375;28;20047;-79
2021/05/30 09:27:12;;;;;;;5.15;1.58;;;;;;;;;;5113780;28;20020;-78
2021/05/30 09:29:38;;;;;;;3.67;2.03;;;;;;;;;;5113811;28;20031;-79
2021/05/30 09:32:04;;;;;;;2.60;1.50;;;;;;;;;;5113891;28;20443;-78
2021/05/30 09:34:37;;;;;;;3.17;1.45;;;;;;;;;;5113740;28;20486;-78
2021/05/30 09:37:05;;;;;;;2.27;1.10;;;;;;;;;;5113847;28;20102;-79
2021/05/30 09:39:34;;;;;;;2.63;1.33;;;;;;;;;;5114283;28;20027;-78
2021/05/30 09:42:19;;;;;;;1.98;1.42;;;;;;;;;;5113994;28;20028;-80
2021/05/30 09:44:57;;;;;;;2.83;1.40;;;;;;;;;;5113260;28;20043;-77
2021/05/30 09:47:45;;;;;;;1.83;1.40;;;;;;;;;;5113858;28;20066;-81
2021/05/30 09:50:18;;;;;;;2.17;1.55;;;;;;;;;;5113583;28;20111;-77
2021/05/30 09:52:49;;;;;;;1.80;1.40;;;;;;;;;;5094936;28;20042;-81
2021/05/30 09:55:16;;;;;;;2.40;1.30;;;;;;;;;;5113670;28;20038;-79
2021/05/30 09:58:03;;;;;;;3.80;1.85;;;;;;;;;;5113309;28;20019;-78
2021/05/30 10:00:29;;;;;;;3.00;1.58;;;;;;;;;;5113299;28;20034;-77
2021/05/30 10:02:55;;;;;;;1.55;1.20;;;;;;;;;;5113623;28;20099;-78
2021/05/30 10:05:22;;;;;;;2.13;1.80;;;;;;;;;;5116766;28;20042;-78
2021/05/30 10:07:49;;;;;;;2.10;1.70;;;;;;;;;;5117774;28;20085;-78
2021/05/30 10:10:15;;;;;;;2.22;1.52;;;;;;;;;;5117650;28;20439;-79
2021/05/30 10:12:41;;;;;;;5.88;1.55;;;;;;;;;;5117400;28;20103;-78
2021/05/30 10:15:08;;;;;;;2.50;1.40;;;;;;;;;;5117507;28;20058;-80
2021/05/30 10:17:34;;;;;;;1.95;1.75;;;;;;;;;;5117377;28;20024;-78
2021/05/30 10:20:01;;;;;;;3.25;1.80;;;;;;;;;;5117483;28;20489;-77
2021/05/30 10:22:29;;;;;;;3.55;1.90;;;;;;;;;;5117364;28;20027;-77
2021/05/30 10:24:55;;;;;;;3.13;1.30;;;;;;;;;;5117328;28;20031;-80
2021/05/30 10:27:30;;;;;;;1.80;1.58;;;;;;;;;;5117536;28;20062;-78
2021/05/30 10:30:13;;;;;;;1.77;1.58;;;;;;;;;;5117567;28;20036;-80
2021/05/30 10:32:40;;;;;;;1.52;1.33;;;;;;;;;;5117329;28;20032;-78
2021/05/30 10:35:17;;;;;;;1.60;1.30;;;;;;;;;;5099042;28;20093;-77
2021/05/30 10:37:50;;;;;;;3.08;1.60;;;;;;;;;;5116880;28;20034;-76
2021/05/30 10:40:19;;;;;;;2.67;1.40;;;;;;;;;;5117097;28;20032;-78
2021/05/30 10:43:05;;;;;;;1.88;1.25;;;;;;;;;;5117042;28;20103;-76
2021/05/30 10:45:31;;;;;;;2.42;1.52;;;;;;;;;;5116718;28;20110;-76
2021/05/30 10:48:03;;;;;;;2.60;1.52;;;;;;;;;;5117110;28;20032;-78
2021/05/30 10:53:31;;;;;;;3.55;1.70;;;;;;;;;;5117164;28;20078;-78
2021/05/30 10:56:16;;;;;;;3.67;1.70;;;;;;;;;;5116823;28;20555;-78
2021/05/30 10:58:41;;;;;;;;;;;;;;;;;;5117244;28;20072;-79
2021/05/30 11:01:15;;;;;;;2.38;1.77;;;;;;;;;;5116588;28;19907;-80
2021/05/30 11:03:52;;;;;;;3.58;2.13;;;;;;;;;;5116648;28;20027;-80
2021/05/30 11:06:38;;;;;;;3.15;2.25;;;;;;;;;;5117103;28;20501;-76
2021/05/30 11:09:04;;;;;;;3.42;2.50;;;;;;;;;;5116535;28;20431;-77
2021/05/30 11:11:30;;;;;;;3.45;2.25;;;;;;;;;;5116258;28;20027;-77
2021/05/30 11:13:58;;;;;;;2.67;2.08;;;;;;;;;;5116795;28;20450;-77
2021/05/30 11:16:25;;;;;;;3.83;2.85;;;;;;;;;;5115260;28;20103;-77
2021/05/30 11:19:10;;;;;;;2.45;2.00;;;;;;;;;;5116451;28;20031;-79
2021/05/30 11:21:41;;;;;;;3.97;2.80;;;;;;;;;;5115956;28;20031;-80
2021/05/30 11:24:09;;;;;;;2.65;2.20;;;;;;;;;;5116198;28;20031;-81
2021/05/30 11:26:35;;;;;;;4.97;2.63;;;;;;;;;;5116118;28;20035;-78
2021/05/30 11:29:01;;;;;;;3.30;2.60;;;;;;;;;;5116097;28;20031;-78
2021/05/30 11:31:28;;;;;;;3.30;2.92;;;;;;;;;;5115942;28;20030;-77
2021/05/30 11:33:56;;;;;;;3.17;2.88;;;;;;;;;;5116235;28;20023;-78
2021/05/30 11:36:25;;;;;;;3.90;2.85;;;;;;;;;;5115568;28;20054;-79
2021/05/30 11:38:54;;;;;;;3.65;2.60;;;;;;;;;;5116084;28;20028;-78
2021/05/30 11:41:23;;;;;;;3.45;3.15;;;;;;;;;;5116220;28;20035;-79
2021/05/30 11:44:08;;;;;;;4.05;2.60;;;;;;;;;;5115697;28;20035;-78
2021/05/30 11:46:55;;;;;;;3.78;3.05;;;;;;;;;;5097578;28;20020;-80
2021/05/30 11:49:25;;;;;;;6.68;2.97;;;;;;;;;;5115685;28;20096;-77
2021/05/30 11:51:55;;;;;;;4.28;2.85;;;;;;;;;;5115463;28;20024;-78
2021/05/30 11:54:22;;;;;;;3.17;2.88;;;;;;;;;;5115820;28;20027;-77
2021/05/30 11:56:49;;;;;;;4.78;3.22;;;;;;;;;;5115657;28;20027;-79
2021/05/30 11:59:15;;;;;;;4.50;3.17;;;;;;;;;;5115295;28;20024;-79
2021/05/30 12:01:44;;;;;;;3.80;3.10;;;;;;;;;;5115590;28;20023;-78
2021/05/30 12:04:19;;;;;;;3.65;3.05;;;;;;;;;;5115809;28;20039;-75
2021/05/30 12:06:46;;;;;;;4.22;3.22;;;;;;;;;;5115667;28;20046;-75
2021/05/30 12:09:12;;;;;;;3.42;2.78;;;;;;;;;;5115424;28;20110;-77
2021/05/30 12:11:40;;;;;;;4.43;3.28;;;;;;;;;;5115376;28;20486;-76
2021/05/30 12:14:06;;;;;;;6.45;3.92;;;;;;;;;;5115177;28;20024;-78
2021/05/30 12:16:32;;;;;;;6.57;4.15;;;;;;;;;;5114976;28;20027;-79
2021/05/30 12:19:00;;;;;;;4.32;3.90;;;;;;;;;;5115252;28;20113;-76
2021/05/30 12:21:28;;;;;;;5.75;4.20;;;;;;;;;;5115196;28;20024;-77
2021/05/30 12:23:54;;;;;;;4.65;4.03;;;;;;;;;;5115459;28;20479;-78
2021/05/30 12:26:20;;;;;;;4.82;3.97;;;;;;;;;;5114831;28;20104;-79
2021/05/30 12:28:47;;;;;;;8.68;4.03;;;;;;;;;;5114694;28;20024;-78
2021/05/30 12:31:17;;;;;;;4.80;4.20;;;;;;;;;;5114936;28;20028;-78
2021/05/30 12:34:01;;;;;;;5.50;4.95;;;;;;;;;;5114993;28;20069;-80
2021/05/30 12:36:31;;;;;;;4.32;3.95;;;;;;;;;;5114504;28;20537;-76
2021/05/30 12:39:09;;;;;;;6.63;4.00;;;;;;;;;;5114747;28;20023;-80
2021/05/30 12:41:38;;;;;;;4.82;4.43;;;;;;;;;;5114594;28;20028;-80
2021/05/30 12:44:07;;;;;;;5.43;4.85;;;;;;;;;;5114574;28;20085;-79
2021/05/30 12:46:34;;;;;;;5.40;4.90;;;;;;;;;;5114666;28;20486;-77
2021/05/30 12:49:09;;;;;;;5.63;4.80;;;;;;;;;;5114581;28;20032;-81
2021/05/30 12:51:36;;;;;;;5.25;4.75;;;;;;;;;;5114295;28;20019;-78
2021/05/30 12:54:19;;;;;;;5.57;4.97;;;;;;;;;;5115061;28;20450;-79
2021/05/30 12:56:47;;;;;;;6.00;4.53;;;;;;;;;;5114573;28;20500;-77
2021/05/30 12:59:14;;;;;;;5.55;4.63;;;;;;;;;;5114508;28;20024;-76
2021/05/30 13:01:42;;;;;;;5.57;4.32;;;;;;;;;;5114324;28;20024;-76
2021/05/30 13:04:27;;;;;;;4.60;4.03;;;;;;;;;;5113769;28;20497;-79
2021/05/30 13:07:04;;;;;;;5.63;4.57;;;;;;;;;;5114278;28;20379;-76
2021/05/30 13:09:49;;;;;;;5.15;4.32;;;;;;;;;;5095763;28;20499;-78
2021/05/30 13:12:36;;;;;;;5.97;5.45;;;;;;;;;;5113782;28;20023;-77
2021/05/30 13:15:06;;;;;;;8.00;5.70;;;;;;;;;;5114484;28;20468;-76
2021/05/30 13:17:33;;;;;;;6.57;6.00;;;;;;;;;;5113917;28;20100;-75
2021/05/30 13:20:23;;;;;;;7.05;6.45;;;;;;;;;;5113945;28;20513;-79
2021/05/30 13:22:56;;;;;;;8.75;8.02;;;;;;;;;;5101188;28;20088;-78
2021/05/30 13:25:31;;;;;;;8.63;7.90;;;;;;;;;;5113912;28;20027;-77
2021/05/30 13:28:20;;;;;;;9.00;8.30;;;;;;;;;;5113888;28;20023;-78
2021/05/30 13:30:51;;;;;;;9.70;8.90;;;;;;;;;;5113773;28;20045;-76
2021/05/30 13:33:18;;;;;;;10.07;9.18;;;;;;;;;;5113641;28;20026;-76
2021/05/30 13:35:45;;;;;;;9.60;8.82;;;;;;;;;;5113685;28;20050;-77
2021/05/30 13:38:11;;;;;;;10.63;9.52;;;;;;;;;;5113280;28;20023;-76
2021/05/30 13:40:56;;;;;;;10.65;9.75;;;;;;;;;;5113342;28;20032;-78
2021/05/30 13:43:22;;;;;;;10.82;9.93;;;;;;;;;;5113277;28;20031;-76
2021/05/30 13:45:49;;;;;;;10.48;9.57;;;;;;;;;;5113900;28;20032;-80
2021/05/30 13:48:16;;;;;;;11.60;10.60;;;;;;;;;;5113704;28;20020;-77
2021/05/30 13:50:46;;;;;;;11.82;10.82;;;;;;;;;;5113723;28;20055;-77
2021/05/30 13:53:12;;;;;;;13.60;12.27;;;;;;;;;;5113273;28;20039;-79
2021/05/30 13:55:42;;;;;;;10.05;9.27;;;;;;;;;;5113724;28;20490;-78
2021/05/30 13:58:08;;;;;;;10.45;9.48;;;;;;;;;;5114154;28;20437;-79
2021/05/30 14:00:34;;;;;;;11.93;10.82;;;;;;;;;;5113338;28;20054;-78
2021/05/30 14:03:01;;;;;;;11.18;10.15;;;;;;;;;;5113661;28;20080;-77
2021/05/30 14:05:27;;;;;;;10.18;9.38;;;;;;;;;;5111423;28;20057;-78
2021/05/30 14:07:53;;;;;;;10.60;9.70;;;;;;;;;;5102189;28;20424;-78
2021/05/30 14:10:20;;;;;;;11.30;9.40;;;;;;;;;;5113448;28;20032;-79
2021/05/30 14:12:46;;;;;;;10.95;10.07;;;;;;;;;;5113604;28;20423;-76
2021/05/30 14:15:12;;;;;;;10.25;9.35;;;;;;;;;;5113153;28;20028;-78
2021/05/30 14:17:39;;;;;;;9.90;9.07;;;;;;;;;;5113437;28;20032;-77
2021/05/30 14:20:09;;;;;;;9.00;8.20;;;;;;;;;;5113366;28;20023;-78
2021/05/30 14:22:36;;;;;;;8.93;8.20;;;;;;;;;;5113377;28;20386;-77
2021/05/30 14:25:02;;;;;;;8.45;7.85;;;;;;;;;;5112943;28;20043;-77
2021/05/30 14:27:28;;;;;;;9.57;8.68;;;;;;;;;;5113399;28;20031;-77
2021/05/30 14:29:55;;;;;;;9.50;8.70;;;;;;;;;;5113392;28;20031;-79
2021/05/30 14:32:21;;;;;;;9.82;9.05;;;;;;;;;;5113182;28;20635;-78
2021/05/30 14:34:47;;;;;;;8.82;8.02;;;;;;;;;;5113181;28;20055;-78
2021/05/30 14:37:13;;;;;;;9.40;8.60;;;;;;;;;;5112890;28;20467;-77
2021/05/30 14:39:39;;;;;;;10.05;9.10;;;;;;;;;;5112989;28;20038;-77
2021/05/30 14:42:06;;;;;;;9.88;9.07;;;;;;;;;;5113071;28;20030;-76
2021/05/30 14:44:32;;;;;;;10.25;9.25;;;;;;;;;;5112996;28;20515;-80
2021/05/30 14:46:59;;;;;;;11.07;10.18;;;;;;;;;;5113085;28;20106;-77
2021/05/30 14:49:25;;;;;;;10.07;9.18;;;;;;;;;;5113283;28;20538;-77
2021/05/30 14:51:51;;;;;;;10.90;10.00;;;;;;;;;;5116501;28;20023;-76